sensor_id;sensor_type;location;lat;lon;timestamp;P1;durP1;ratioP1;P2;durP2;ratioP2
39190;SDS011;24916;51.676;6.614;2023-05-23T00:00:18;7.10;;;4.03;;
39190;SDS011;24916;51.676;6.614;2023-05-23T00:02:43;5.25;;;4.30;;
39190;SDS011;24916;51.676;6.614;2023-05-23T00:05:09;5.80;;;4.32;;
39190;SDS011;24916;51.676;6.614;2023-05-23T00:07:34;5.87;;;4.17;;
39190;SDS011;24916;51.676;6.614;2023-05-23T00:09:59;6.20;;;4.07;;
39190;SDS011;24916;51.676;6.614;2023-05-23T00:12:24;4.35;;;3.70;;
39190;SDS011;24916;51.676;6.614;2023-05-23T00:14:49;5.63;;;4.07;;
39190;SDS011;24916;51.676;6.614;2023-05-23T00:17:17;5.88;;;3.65;;
39190;SDS011;24916;51.676;6.614;2023-05-23T00:19:42;6.93;;;4.22;;
39190;SDS011;24916;51.676;6.614;2023-05-23T00:22:10;6.28;;;3.70;;
39190;SDS011;24916;51.676;6.614;2023-05-23T00:24:35;5.07;;;3.78;;
39190;SDS011;24916;51.676;6.614;2023-05-23T00:27:00;4.53;;;3.53;;
39190;SDS011;24916;51.676;6.614;2023-05-23T00:29:26;6.07;;;4.47;;
39190;SDS011;24916;51.676;6.614;2023-05-23T00:31:51;5.40;;;3.83;;
39190;SDS011;24916;51.676;6.614;2023-05-23T00:34:16;5.93;;;3.75;;
39190;SDS011;24916;51.676;6.614;2023-05-23T00:36:41;6.15;;;3.70;;
39190;SDS011;24916;51.676;6.614;2023-05-23T00:39:08;7.53;;;4.45;;
39190;SDS011;24916;51.676;6.614;2023-05-23T00:41:33;4.78;;;3.75;;
39190;SDS011;24916;51.676;6.614;2023-05-23T00:44:00;5.18;;;3.60;;
39190;SDS011;24916;51.676;6.614;2023-05-23T00:46:25;6.10;;;4.35;;
39190;SDS011;24916;51.676;6.614;2023-05-23T00:48:51;6.85;;;3.83;;
39190;SDS011;24916;51.676;6.614;2023-05-23T00:51:17;5.95;;;4.38;;
39190;SDS011;24916;51.676;6.614;2023-05-23T00:53:42;5.65;;;4.40;;
39190;SDS011;24916;51.676;6.614;2023-05-23T00:56:07;8.00;;;4.50;;
39190;SDS011;24916;51.676;6.614;2023-05-23T00:58:33;6.60;;;4.38;;
39190;SDS011;24916;51.676;6.614;2023-05-23T01:00:58;5.53;;;4.25;;
39190;SDS011;24916;51.676;6.614;2023-05-23T01:03:24;6.18;;;4.38;;
39190;SDS011;24916;51.676;6.614;2023-05-23T01:05:53;7.10;;;4.18;;
39190;SDS011;24916;51.676;6.614;2023-05-23T01:08:18;5.93;;;4.53;;
39190;SDS011;24916;51.676;6.614;2023-05-23T01:10:43;8.85;;;4.18;;
39190;SDS011;24916;51.676;6.614;2023-05-23T01:15:49;8.88;;;4.22;;
39190;SDS011;24916;51.676;6.614;2023-05-23T01:18:16;8.70;;;4.60;;
39190;SDS011;24916;51.676;6.614;2023-05-23T01:23:12;6.53;;;4.65;;
39190;SDS011;24916;51.676;6.614;2023-05-23T01:28:27;8.48;;;4.97;;
39190;SDS011;24916;51.676;6.614;2023-05-23T01:30:53;10.70;;;5.47;;
39190;SDS011;24916;51.676;6.614;2023-05-23T01:33:21;7.38;;;4.53;;
39190;SDS011;24916;51.676;6.614;2023-05-23T01:35:46;11.65;;;4.78;;
39190;SDS011;24916;51.676;6.614;2023-05-23T01:38:12;9.88;;;5.03;;
39190;SDS011;24916;51.676;6.614;2023-05-23T01:40:37;10.80;;;4.82;;
39190;SDS011;24916;51.676;6.614;2023-05-23T01:43:03;13.10;;;4.95;;
39190;SDS011;24916;51.676;6.614;2023-05-23T01:45:28;8.30;;;4.85;;
39190;SDS011;24916;51.676;6.614;2023-05-23T01:47:54;7.38;;;4.85;;
39190;SDS011;24916;51.676;6.614;2023-05-23T01:50:20;6.10;;;4.90;;
39190;SDS011;24916;51.676;6.614;2023-05-23T01:52:46;9.40;;;5.13;;
39190;SDS011;24916;51.676;6.614;2023-05-23T01:55:11;10.75;;;4.70;;
39190;SDS011;24916;51.676;6.614;2023-05-23T01:57:39;7.97;;;4.90;;
39190;SDS011;24916;51.676;6.614;2023-05-23T02:00:05;7.47;;;4.68;;
39190;SDS011;24916;51.676;6.614;2023-05-23T02:02:31;6.25;;;4.05;;
39190;SDS011;24916;51.676;6.614;2023-05-23T02:04:56;10.45;;;5.60;;
39190;SDS011;24916;51.676;6.614;2023-05-23T02:07:22;8.73;;;4.97;;
39190;SDS011;24916;51.676;6.614;2023-05-23T02:09:47;6.93;;;4.47;;
39190;SDS011;24916;51.676;6.614;2023-05-23T02:12:13;10.57;;;5.25;;
39190;SDS011;24916;51.676;6.614;2023-05-23T02:14:38;8.70;;;4.57;;
39190;SDS011;24916;51.676;6.614;2023-05-23T02:17:03;8.73;;;5.07;;
39190;SDS011;24916;51.676;6.614;2023-05-23T02:19:29;8.63;;;5.07;;
39190;SDS011;24916;51.676;6.614;2023-05-23T02:21:54;8.15;;;5.15;;
39190;SDS011;24916;51.676;6.614;2023-05-23T02:24:19;11.00;;;5.95;;
39190;SDS011;24916;51.676;6.614;2023-05-23T02:26:44;11.60;;;5.40;;
39190;SDS011;24916;51.676;6.614;2023-05-23T02:29:10;10.10;;;5.32;;
39190;SDS011;24916;51.676;6.614;2023-05-23T02:31:35;10.55;;;5.55;;
39190;SDS011;24916;51.676;6.614;2023-05-23T02:34:00;9.43;;;4.63;;
39190;SDS011;24916;51.676;6.614;2023-05-23T02:36:25;11.05;;;5.05;;
39190;SDS011;24916;51.676;6.614;2023-05-23T02:38:51;10.43;;;4.55;;
39190;SDS011;24916;51.676;6.614;2023-05-23T02:41:16;7.00;;;4.15;;
39190;SDS011;24916;51.676;6.614;2023-05-23T02:43:43;10.48;;;4.07;;
39190;SDS011;24916;51.676;6.614;2023-05-23T02:46:08;7.80;;;4.47;;
39190;SDS011;24916;51.676;6.614;2023-05-23T02:48:34;18.13;;;4.70;;
39190;SDS011;24916;51.676;6.614;2023-05-23T02:50:59;9.35;;;4.65;;
39190;SDS011;24916;51.676;6.614;2023-05-23T02:53:24;7.22;;;4.30;;
39190;SDS011;24916;51.676;6.614;2023-05-23T02:55:49;7.55;;;4.95;;
39190;SDS011;24916;51.676;6.614;2023-05-23T02:58:15;7.90;;;4.30;;
39190;SDS011;24916;51.676;6.614;2023-05-23T03:00:40;7.50;;;4.43;;
39190;SDS011;24916;51.676;6.614;2023-05-23T03:03:07;7.35;;;4.43;;
39190;SDS011;24916;51.676;6.614;2023-05-23T03:05:32;11.10;;;5.47;;
39190;SDS011;24916;51.676;6.614;2023-05-23T03:07:58;10.23;;;4.83;;
39190;SDS011;24916;51.676;6.614;2023-05-23T03:10:24;10.50;;;4.72;;
39190;SDS011;24916;51.676;6.614;2023-05-23T03:12:49;7.72;;;4.70;;
39190;SDS011;24916;51.676;6.614;2023-05-23T03:15:14;10.55;;;5.15;;
39190;SDS011;24916;51.676;6.614;2023-05-23T03:17:40;9.07;;;4.65;;
39190;SDS011;24916;51.676;6.614;2023-05-23T03:20:05;9.45;;;5.07;;
39190;SDS011;24916;51.676;6.614;2023-05-23T03:22:33;10.30;;;5.38;;
39190;SDS011;24916;51.676;6.614;2023-05-23T03:24:59;7.65;;;4.78;;
39190;SDS011;24916;51.676;6.614;2023-05-23T03:27:24;8.87;;;5.33;;
39190;SDS011;24916;51.676;6.614;2023-05-23T03:29:49;14.47;;;6.13;;
39190;SDS011;24916;51.676;6.614;2023-05-23T03:32:15;13.40;;;5.90;;
39190;SDS011;24916;51.676;6.614;2023-05-23T03:34:40;9.43;;;6.00;;
39190;SDS011;24916;51.676;6.614;2023-05-23T03:37:05;8.25;;;5.50;;
39190;SDS011;24916;51.676;6.614;2023-05-23T03:39:30;15.20;;;5.97;;
39190;SDS011;24916;51.676;6.614;2023-05-23T03:41:56;8.75;;;5.30;;
39190;SDS011;24916;51.676;6.614;2023-05-23T03:44:21;11.85;;;6.28;;
39190;SDS011;24916;51.676;6.614;2023-05-23T03:46:46;11.55;;;5.80;;
39190;SDS011;24916;51.676;6.614;2023-05-23T03:49:11;11.63;;;5.78;;
39190;SDS011;24916;51.676;6.614;2023-05-23T03:51:36;13.73;;;6.30;;
39190;SDS011;24916;51.676;6.614;2023-05-23T03:54:02;13.88;;;6.65;;
39190;SDS011;24916;51.676;6.614;2023-05-23T03:56:27;10.95;;;6.03;;
39190;SDS011;24916;51.676;6.614;2023-05-23T03:58:52;10.67;;;6.77;;
39190;SDS011;24916;51.676;6.614;2023-05-23T04:01:17;13.40;;;6.88;;
39190;SDS011;24916;51.676;6.614;2023-05-23T04:03:42;13.13;;;7.33;;
39190;SDS011;24916;51.676;6.614;2023-05-23T04:06:08;12.93;;;7.45;;
39190;SDS011;24916;51.676;6.614;2023-05-23T04:08:33;13.32;;;7.07;;
39190;SDS011;24916;51.676;6.614;2023-05-23T04:10:59;17.45;;;8.00;;
39190;SDS011;24916;51.676;6.614;2023-05-23T04:13:25;15.25;;;7.45;;
39190;SDS011;24916;51.676;6.614;2023-05-23T04:15:51;12.77;;;7.75;;
39190;SDS011;24916;51.676;6.614;2023-05-23T04:18:16;11.88;;;6.65;;
39190;SDS011;24916;51.676;6.614;2023-05-23T04:20:41;12.63;;;7.22;;
39190;SDS011;24916;51.676;6.614;2023-05-23T04:23:07;11.20;;;7.53;;
39190;SDS011;24916;51.676;6.614;2023-05-23T04:25:32;16.77;;;7.45;;
39190;SDS011;24916;51.676;6.614;2023-05-23T04:27:58;10.80;;;7.03;;
39190;SDS011;24916;51.676;6.614;2023-05-23T04:30:23;10.77;;;7.25;;
39190;SDS011;24916;51.676;6.614;2023-05-23T04:32:49;14.65;;;7.00;;
39190;SDS011;24916;51.676;6.614;2023-05-23T04:35:14;15.13;;;7.25;;
39190;SDS011;24916;51.676;6.614;2023-05-23T04:37:39;24.48;;;7.78;;
39190;SDS011;24916;51.676;6.614;2023-05-23T04:40:06;14.77;;;7.57;;
39190;SDS011;24916;51.676;6.614;2023-05-23T04:42:32;13.50;;;7.10;;
39190;SDS011;24916;51.676;6.614;2023-05-23T04:44:57;17.52;;;8.07;;
39190;SDS011;24916;51.676;6.614;2023-05-23T04:47:22;14.50;;;8.18;;
39190;SDS011;24916;51.676;6.614;2023-05-23T04:49:48;15.80;;;7.85;;
39190;SDS011;24916;51.676;6.614;2023-05-23T04:52:14;11.65;;;7.68;;
39190;SDS011;24916;51.676;6.614;2023-05-23T04:54:43;11.70;;;7.10;;
39190;SDS011;24916;51.676;6.614;2023-05-23T04:57:08;15.25;;;7.63;;
39190;SDS011;24916;51.676;6.614;2023-05-23T04:59:34;13.43;;;7.47;;
39190;SDS011;24916;51.676;6.614;2023-05-23T05:01:59;14.18;;;8.20;;
39190;SDS011;24916;51.676;6.614;2023-05-23T05:04:24;12.35;;;7.40;;
39190;SDS011;24916;51.676;6.614;2023-05-23T05:06:49;10.02;;;7.18;;
39190;SDS011;24916;51.676;6.614;2023-05-23T05:09:16;13.93;;;7.30;;
39190;SDS011;24916;51.676;6.614;2023-05-23T05:11:45;16.38;;;7.55;;
39190;SDS011;24916;51.676;6.614;2023-05-23T05:14:10;11.00;;;7.53;;
39190;SDS011;24916;51.676;6.614;2023-05-23T05:16:35;12.43;;;6.73;;
39190;SDS011;24916;51.676;6.614;2023-05-23T05:19:01;14.10;;;7.60;;
39190;SDS011;24916;51.676;6.614;2023-05-23T05:21:27;17.85;;;7.93;;
39190;SDS011;24916;51.676;6.614;2023-05-23T05:23:52;16.35;;;7.60;;
39190;SDS011;24916;51.676;6.614;2023-05-23T05:26:18;14.40;;;7.80;;
39190;SDS011;24916;51.676;6.614;2023-05-23T05:28:43;15.23;;;7.53;;
39190;SDS011;24916;51.676;6.614;2023-05-23T05:31:08;15.88;;;9.18;;
39190;SDS011;24916;51.676;6.614;2023-05-23T05:33:34;18.83;;;11.40;;
39190;SDS011;24916;51.676;6.614;2023-05-23T05:36:00;18.13;;;8.20;;
39190;SDS011;24916;51.676;6.614;2023-05-23T05:38:26;12.38;;;7.28;;
39190;SDS011;24916;51.676;6.614;2023-05-23T05:40:51;11.02;;;7.00;;
39190;SDS011;24916;51.676;6.614;2023-05-23T05:43:16;13.32;;;7.18;;
39190;SDS011;24916;51.676;6.614;2023-05-23T05:45:41;13.30;;;7.10;;
39190;SDS011;24916;51.676;6.614;2023-05-23T05:48:07;13.63;;;6.60;;
39190;SDS011;24916;51.676;6.614;2023-05-23T05:50:32;14.93;;;7.13;;
39190;SDS011;24916;51.676;6.614;2023-05-23T05:52:57;17.13;;;7.07;;
39190;SDS011;24916;51.676;6.614;2023-05-23T05:55:22;12.15;;;6.78;;
39190;SDS011;24916;51.676;6.614;2023-05-23T05:57:47;14.57;;;7.32;;
39190;SDS011;24916;51.676;6.614;2023-05-23T06:00:13;13.02;;;7.07;;
39190;SDS011;24916;51.676;6.614;2023-05-23T06:02:42;15.93;;;7.10;;
39190;SDS011;24916;51.676;6.614;2023-05-23T06:05:08;14.98;;;6.80;;
39190;SDS011;24916;51.676;6.614;2023-05-23T06:07:36;13.25;;;6.78;;
39190;SDS011;24916;51.676;6.614;2023-05-23T06:10:02;11.88;;;6.65;;
39190;SDS011;24916;51.676;6.614;2023-05-23T06:12:27;13.95;;;6.55;;
39190;SDS011;24916;51.676;6.614;2023-05-23T06:14:52;14.98;;;7.05;;
39190;SDS011;24916;51.676;6.614;2023-05-23T06:17:18;11.98;;;6.68;;
39190;SDS011;24916;51.676;6.614;2023-05-23T06:19:43;28.80;;;6.90;;
39190;SDS011;24916;51.676;6.614;2023-05-23T06:22:08;10.15;;;6.57;;
39190;SDS011;24916;51.676;6.614;2023-05-23T06:24:33;11.65;;;6.07;;
39190;SDS011;24916;51.676;6.614;2023-05-23T06:26:58;12.50;;;6.35;;
39190;SDS011;24916;51.676;6.614;2023-05-23T06:29:24;16.10;;;6.23;;
39190;SDS011;24916;51.676;6.614;2023-05-23T06:31:49;21.85;;;6.22;;
39190;SDS011;24916;51.676;6.614;2023-05-23T06:34:15;16.65;;;7.22;;
39190;SDS011;24916;51.676;6.614;2023-05-23T06:36:40;7.88;;;5.80;;
39190;SDS011;24916;51.676;6.614;2023-05-23T06:39:06;13.70;;;7.10;;
39190;SDS011;24916;51.676;6.614;2023-05-23T06:41:33;22.40;;;6.32;;
39190;SDS011;24916;51.676;6.614;2023-05-23T06:43:59;15.80;;;6.57;;
39190;SDS011;24916;51.676;6.614;2023-05-23T06:46:24;14.02;;;6.82;;
39190;SDS011;24916;51.676;6.614;2023-05-23T06:48:49;11.77;;;6.65;;
39190;SDS011;24916;51.676;6.614;2023-05-23T06:51:14;15.82;;;7.00;;
39190;SDS011;24916;51.676;6.614;2023-05-23T06:53:40;18.77;;;7.00;;
39190;SDS011;24916;51.676;6.614;2023-05-23T06:56:05;13.32;;;6.95;;
39190;SDS011;24916;51.676;6.614;2023-05-23T06:58:30;21.10;;;7.03;;
39190;SDS011;24916;51.676;6.614;2023-05-23T07:00:55;19.83;;;7.50;;
39190;SDS011;24916;51.676;6.614;2023-05-23T07:03:21;19.40;;;6.90;;
39190;SDS011;24916;51.676;6.614;2023-05-23T07:05:46;17.63;;;6.72;;
39190;SDS011;24916;51.676;6.614;2023-05-23T07:08:11;16.45;;;6.65;;
39190;SDS011;24916;51.676;6.614;2023-05-23T07:10:37;15.43;;;6.57;;
39190;SDS011;24916;51.676;6.614;2023-05-23T07:13:05;20.60;;;7.32;;
39190;SDS011;24916;51.676;6.614;2023-05-23T07:15:30;18.27;;;7.40;;
39190;SDS011;24916;51.676;6.614;2023-05-23T07:17:55;15.98;;;6.70;;
39190;SDS011;24916;51.676;6.614;2023-05-23T07:20:20;14.35;;;6.15;;
39190;SDS011;24916;51.676;6.614;2023-05-23T07:22:46;16.65;;;7.07;;
39190;SDS011;24916;51.676;6.614;2023-05-23T07:25:11;17.10;;;7.00;;
39190;SDS011;24916;51.676;6.614;2023-05-23T07:27:36;18.48;;;7.18;;
39190;SDS011;24916;51.676;6.614;2023-05-23T07:30:01;20.08;;;7.10;;
39190;SDS011;24916;51.676;6.614;2023-05-23T07:32:27;18.48;;;7.07;;
39190;SDS011;24916;51.676;6.614;2023-05-23T07:34:52;16.35;;;7.10;;
39190;SDS011;24916;51.676;6.614;2023-05-23T07:37:17;19.80;;;6.68;;
39190;SDS011;24916;51.676;6.614;2023-05-23T07:39:42;13.25;;;6.25;;
39190;SDS011;24916;51.676;6.614;2023-05-23T07:42:08;16.10;;;5.93;;
39190;SDS011;24916;51.676;6.614;2023-05-23T07:44:33;18.25;;;6.35;;
39190;SDS011;24916;51.676;6.614;2023-05-23T07:46:58;19.02;;;6.40;;
39190;SDS011;24916;51.676;6.614;2023-05-23T07:49:23;17.42;;;6.82;;
39190;SDS011;24916;51.676;6.614;2023-05-23T07:51:49;19.85;;;7.00;;
39190;SDS011;24916;51.676;6.614;2023-05-23T07:54:14;16.00;;;6.53;;
39190;SDS011;24916;51.676;6.614;2023-05-23T07:56:39;15.60;;;6.80;;
39190;SDS011;24916;51.676;6.614;2023-05-23T07:59:04;19.55;;;7.78;;
39190;SDS011;24916;51.676;6.614;2023-05-23T08:01:29;14.45;;;6.57;;
39190;SDS011;24916;51.676;6.614;2023-05-23T08:03:55;13.00;;;6.68;;
39190;SDS011;24916;51.676;6.614;2023-05-23T08:06:20;17.23;;;6.68;;
39190;SDS011;24916;51.676;6.614;2023-05-23T08:08:45;16.70;;;6.35;;
39190;SDS011;24916;51.676;6.614;2023-05-23T08:11:11;15.35;;;6.00;;
39190;SDS011;24916;51.676;6.614;2023-05-23T08:13:36;11.20;;;5.32;;
39190;SDS011;24916;51.676;6.614;2023-05-23T08:16:01;12.97;;;5.23;;
39190;SDS011;24916;51.676;6.614;2023-05-23T08:18:26;13.10;;;5.40;;
39190;SDS011;24916;51.676;6.614;2023-05-23T08:20:52;17.65;;;5.00;;
39190;SDS011;24916;51.676;6.614;2023-05-23T08:23:17;16.60;;;5.72;;
39190;SDS011;24916;51.676;6.614;2023-05-23T08:25:43;21.75;;;5.07;;
39190;SDS011;24916;51.676;6.614;2023-05-23T08:28:08;12.10;;;4.83;;
39190;SDS011;24916;51.676;6.614;2023-05-23T08:30:33;13.65;;;4.80;;
39190;SDS011;24916;51.676;6.614;2023-05-23T08:32:58;11.77;;;5.07;;
39190;SDS011;24916;51.676;6.614;2023-05-23T08:35:24;15.70;;;4.80;;
39190;SDS011;24916;51.676;6.614;2023-05-23T08:37:50;17.00;;;5.38;;
39190;SDS011;24916;51.676;6.614;2023-05-23T08:40:19;12.70;;;5.53;;
39190;SDS011;24916;51.676;6.614;2023-05-23T08:42:46;14.45;;;5.65;;
39190;SDS011;24916;51.676;6.614;2023-05-23T08:45:11;14.98;;;6.00;;
39190;SDS011;24916;51.676;6.614;2023-05-23T08:47:36;12.02;;;5.53;;
39190;SDS011;24916;51.676;6.614;2023-05-23T08:50:05;13.90;;;5.45;;
39190;SDS011;24916;51.676;6.614;2023-05-23T08:52:32;13.65;;;5.07;;
39190;SDS011;24916;51.676;6.614;2023-05-23T08:54:58;13.88;;;5.28;;
39190;SDS011;24916;51.676;6.614;2023-05-23T08:57:24;14.20;;;5.00;;
39190;SDS011;24916;51.676;6.614;2023-05-23T08:59:49;15.20;;;5.75;;
39190;SDS011;24916;51.676;6.614;2023-05-23T09:02:15;14.38;;;6.13;;
39190;SDS011;24916;51.676;6.614;2023-05-23T09:04:42;13.88;;;5.65;;
39190;SDS011;24916;51.676;6.614;2023-05-23T09:07:07;11.68;;;5.50;;
39190;SDS011;24916;51.676;6.614;2023-05-23T09:09:33;16.70;;;6.00;;
39190;SDS011;24916;51.676;6.614;2023-05-23T09:11:59;10.70;;;4.82;;
39190;SDS011;24916;51.676;6.614;2023-05-23T09:14:24;11.82;;;4.95;;
39190;SDS011;24916;51.676;6.614;2023-05-23T09:16:50;10.90;;;5.22;;
39190;SDS011;24916;51.676;6.614;2023-05-23T09:19:16;11.68;;;4.70;;
39190;SDS011;24916;51.676;6.614;2023-05-23T09:21:42;10.05;;;4.97;;
39190;SDS011;24916;51.676;6.614;2023-05-23T09:24:08;9.82;;;4.15;;
39190;SDS011;24916;51.676;6.614;2023-05-23T09:26:33;10.13;;;4.72;;
39190;SDS011;24916;51.676;6.614;2023-05-23T09:28:59;8.90;;;4.13;;
39190;SDS011;24916;51.676;6.614;2023-05-23T09:31:27;10.95;;;4.03;;
39190;SDS011;24916;51.676;6.614;2023-05-23T09:33:56;11.85;;;4.32;;
39190;SDS011;24916;51.676;6.614;2023-05-23T09:36:21;9.32;;;4.30;;
39190;SDS011;24916;51.676;6.614;2023-05-23T09:38:47;7.25;;;3.90;;
39190;SDS011;24916;51.676;6.614;2023-05-23T09:41:12;10.35;;;4.20;;
39190;SDS011;24916;51.676;6.614;2023-05-23T09:43:59;8.68;;;3.70;;
39190;SDS011;24916;51.676;6.614;2023-05-23T09:46:27;10.15;;;3.83;;
39190;SDS011;24916;51.676;6.614;2023-05-23T09:48:52;12.07;;;3.95;;
39190;SDS011;24916;51.676;6.614;2023-05-23T09:51:19;8.77;;;3.13;;
39190;SDS011;24916;51.676;6.614;2023-05-23T09:53:45;13.63;;;3.83;;
39190;SDS011;24916;51.676;6.614;2023-05-23T09:56:11;11.80;;;3.78;;
39190;SDS011;24916;51.676;6.614;2023-05-23T09:58:37;7.35;;;3.60;;
39190;SDS011;24916;51.676;6.614;2023-05-23T10:01:02;11.73;;;3.72;;
39190;SDS011;24916;51.676;6.614;2023-05-23T10:03:36;7.13;;;3.35;;
39190;SDS011;24916;51.676;6.614;2023-05-23T10:06:07;7.07;;;3.58;;
39190;SDS011;24916;51.676;6.614;2023-05-23T10:08:35;8.27;;;3.67;;
39190;SDS011;24916;51.676;6.614;2023-05-23T10:13:48;13.52;;;4.28;;
39190;SDS011;24916;51.676;6.614;2023-05-23T10:16:15;10.73;;;3.60;;
39190;SDS011;24916;51.676;6.614;2023-05-23T10:18:42;10.93;;;4.18;;
39190;SDS011;24916;51.676;6.614;2023-05-23T10:21:11;10.68;;;4.00;;
39190;SDS011;24916;51.676;6.614;2023-05-23T10:23:39;14.88;;;3.55;;
39190;SDS011;24916;51.676;6.614;2023-05-23T10:26:06;10.70;;;3.15;;
39190;SDS011;24916;51.676;6.614;2023-05-23T10:28:31;12.57;;;3.20;;
39190;SDS011;24916;51.676;6.614;2023-05-23T10:30:57;10.02;;;3.17;;
39190;SDS011;24916;51.676;6.614;2023-05-23T10:33:24;11.18;;;3.20;;
39190;SDS011;24916;51.676;6.614;2023-05-23T10:35:55;7.75;;;2.88;;
39190;SDS011;24916;51.676;6.614;2023-05-23T10:45:43;14.95;;;3.88;;
39190;SDS011;24916;51.676;6.614;2023-05-23T10:51:00;12.52;;;2.95;;
39190;SDS011;24916;51.676;6.614;2023-05-23T10:53:27;12.75;;;2.88;;
39190;SDS011;24916;51.676;6.614;2023-05-23T10:55:52;12.60;;;3.05;;
39190;SDS011;24916;51.676;6.614;2023-05-23T10:58:20;10.18;;;3.13;;
39190;SDS011;24916;51.676;6.614;2023-05-23T11:00:50;7.93;;;2.88;;
39190;SDS011;24916;51.676;6.614;2023-05-23T11:03:16;14.07;;;2.83;;
39190;SDS011;24916;51.676;6.614;2023-05-23T11:05:46;10.53;;;2.83;;
39190;SDS011;24916;51.676;6.614;2023-05-23T11:08:12;21.38;;;3.08;;
39190;SDS011;24916;51.676;6.614;2023-05-23T11:13:16;11.52;;;2.90;;
39190;SDS011;24916;51.676;6.614;2023-05-23T11:15:41;14.50;;;3.08;;
39190;SDS011;24916;51.676;6.614;2023-05-23T11:18:07;9.63;;;2.33;;
39190;SDS011;24916;51.676;6.614;2023-05-23T11:20:32;12.93;;;3.90;;
39190;SDS011;24916;51.676;6.614;2023-05-23T11:22:59;11.38;;;2.92;;
39190;SDS011;24916;51.676;6.614;2023-05-23T11:28:10;11.77;;;3.20;;
39190;SDS011;24916;51.676;6.614;2023-05-23T11:30:35;16.75;;;3.47;;
39190;SDS011;24916;51.676;6.614;2023-05-23T11:33:05;12.80;;;3.10;;
39190;SDS011;24916;51.676;6.614;2023-05-23T11:35:31;9.40;;;3.58;;
39190;SDS011;24916;51.676;6.614;2023-05-23T11:37:56;18.23;;;5.97;;
39190;SDS011;24916;51.676;6.614;2023-05-23T11:40:28;15.05;;;5.45;;
39190;SDS011;24916;51.676;6.614;2023-05-23T11:42:55;14.85;;;5.53;;
39190;SDS011;24916;51.676;6.614;2023-05-23T11:45:23;8.38;;;3.40;;
39190;SDS011;24916;51.676;6.614;2023-05-23T11:47:48;13.93;;;3.30;;
39190;SDS011;24916;51.676;6.614;2023-05-23T11:50:14;8.80;;;2.97;;
39190;SDS011;24916;51.676;6.614;2023-05-23T11:52:39;13.50;;;3.70;;
39190;SDS011;24916;51.676;6.614;2023-05-23T11:55:08;10.70;;;2.83;;
39190;SDS011;24916;51.676;6.614;2023-05-23T11:57:39;12.05;;;3.50;;
39190;SDS011;24916;51.676;6.614;2023-05-23T12:00:05;11.85;;;3.60;;
39190;SDS011;24916;51.676;6.614;2023-05-23T12:02:37;12.38;;;3.08;;
39190;SDS011;24916;51.676;6.614;2023-05-23T12:05:05;16.38;;;4.32;;
39190;SDS011;24916;51.676;6.614;2023-05-23T12:07:32;13.82;;;3.17;;
39190;SDS011;24916;51.676;6.614;2023-05-23T12:09:57;10.18;;;3.35;;
39190;SDS011;24916;51.676;6.614;2023-05-23T12:12:22;13.23;;;3.30;;
39190;SDS011;24916;51.676;6.614;2023-05-23T12:14:47;17.05;;;3.58;;
39190;SDS011;24916;51.676;6.614;2023-05-23T12:17:13;12.60;;;3.03;;
39190;SDS011;24916;51.676;6.614;2023-05-23T12:19:38;7.72;;;3.13;;
39190;SDS011;24916;51.676;6.614;2023-05-23T12:22:06;8.43;;;2.63;;
39190;SDS011;24916;51.676;6.614;2023-05-23T12:24:32;9.40;;;2.85;;
39190;SDS011;24916;51.676;6.614;2023-05-23T12:26:58;12.60;;;3.53;;
39190;SDS011;24916;51.676;6.614;2023-05-23T12:31:56;11.05;;;2.78;;
39190;SDS011;24916;51.676;6.614;2023-05-23T12:34:22;11.05;;;3.33;;
39190;SDS011;24916;51.676;6.614;2023-05-23T12:36:47;8.75;;;2.90;;
39190;SDS011;24916;51.676;6.614;2023-05-23T12:39:17;11.13;;;2.90;;
39190;SDS011;24916;51.676;6.614;2023-05-23T12:41:47;9.18;;;2.65;;
39190;SDS011;24916;51.676;6.614;2023-05-23T12:44:16;9.27;;;2.55;;
39190;SDS011;24916;51.676;6.614;2023-05-23T12:46:41;11.38;;;5.07;;
39190;SDS011;24916;51.676;6.614;2023-05-23T12:49:07;11.38;;;3.17;;
39190;SDS011;24916;51.676;6.614;2023-05-23T12:51:32;9.97;;;2.70;;
39190;SDS011;24916;51.676;6.614;2023-05-23T12:53:57;8.07;;;2.50;;
39190;SDS011;24916;51.676;6.614;2023-05-23T12:56:23;10.10;;;3.20;;
39190;SDS011;24916;51.676;6.614;2023-05-23T12:58:48;10.03;;;3.43;;
39190;SDS011;24916;51.676;6.614;2023-05-23T13:01:13;12.00;;;3.03;;
39190;SDS011;24916;51.676;6.614;2023-05-23T13:03:38;10.63;;;2.97;;
39190;SDS011;24916;51.676;6.614;2023-05-23T13:06:04;4.65;;;2.08;;
39190;SDS011;24916;51.676;6.614;2023-05-23T13:08:29;9.80;;;3.00;;
39190;SDS011;24916;51.676;6.614;2023-05-23T13:10:54;7.57;;;2.67;;
39190;SDS011;24916;51.676;6.614;2023-05-23T13:13:20;9.80;;;3.30;;
39190;SDS011;24916;51.676;6.614;2023-05-23T13:15:46;11.10;;;3.75;;
39190;SDS011;24916;51.676;6.614;2023-05-23T13:18:11;8.40;;;3.53;;
39190;SDS011;24916;51.676;6.614;2023-05-23T13:20:37;8.15;;;3.60;;
39190;SDS011;24916;51.676;6.614;2023-05-23T13:23:09;8.50;;;3.20;;
39190;SDS011;24916;51.676;6.614;2023-05-23T13:25:34;16.25;;;4.25;;
39190;SDS011;24916;51.676;6.614;2023-05-23T13:28:00;13.30;;;3.00;;
39190;SDS011;24916;51.676;6.614;2023-05-23T13:30:26;9.73;;;3.10;;
39190;SDS011;24916;51.676;6.614;2023-05-23T13:32:51;18.30;;;4.57;;
39190;SDS011;24916;51.676;6.614;2023-05-23T13:35:16;8.23;;;3.00;;
39190;SDS011;24916;51.676;6.614;2023-05-23T13:37:42;9.88;;;2.60;;
39190;SDS011;24916;51.676;6.614;2023-05-23T13:40:09;13.43;;;3.22;;
39190;SDS011;24916;51.676;6.614;2023-05-23T13:42:36;10.50;;;2.97;;
39190;SDS011;24916;51.676;6.614;2023-05-23T13:45:01;12.50;;;3.33;;
39190;SDS011;24916;51.676;6.614;2023-05-23T13:47:26;8.50;;;2.70;;
39190;SDS011;24916;51.676;6.614;2023-05-23T13:49:51;13.55;;;2.80;;
39190;SDS011;24916;51.676;6.614;2023-05-23T13:52:17;10.50;;;2.60;;
39190;SDS011;24916;51.676;6.614;2023-05-23T13:54:43;8.07;;;2.50;;
39190;SDS011;24916;51.676;6.614;2023-05-23T13:57:08;10.83;;;3.17;;
39190;SDS011;24916;51.676;6.614;2023-05-23T13:59:33;12.50;;;3.23;;
39190;SDS011;24916;51.676;6.614;2023-05-23T14:01:59;7.88;;;2.22;;
39190;SDS011;24916;51.676;6.614;2023-05-23T14:04:24;10.67;;;3.10;;
39190;SDS011;24916;51.676;6.614;2023-05-23T14:06:49;7.68;;;2.83;;
39190;SDS011;24916;51.676;6.614;2023-05-23T14:09:15;14.82;;;4.00;;
39190;SDS011;24916;51.676;6.614;2023-05-23T14:11:40;12.75;;;3.17;;
39190;SDS011;24916;51.676;6.614;2023-05-23T14:14:05;8.95;;;3.63;;
39190;SDS011;24916;51.676;6.614;2023-05-23T14:16:30;11.67;;;3.10;;
39190;SDS011;24916;51.676;6.614;2023-05-23T14:18:56;13.45;;;2.50;;
39190;SDS011;24916;51.676;6.614;2023-05-23T14:21:21;14.48;;;3.08;;
39190;SDS011;24916;51.676;6.614;2023-05-23T14:23:46;10.75;;;2.80;;
39190;SDS011;24916;51.676;6.614;2023-05-23T14:26:12;7.80;;;2.43;;
39190;SDS011;24916;51.676;6.614;2023-05-23T14:28:37;10.23;;;2.45;;
39190;SDS011;24916;51.676;6.614;2023-05-23T14:31:02;10.40;;;2.97;;
39190;SDS011;24916;51.676;6.614;2023-05-23T14:33:27;9.63;;;2.70;;
39190;SDS011;24916;51.676;6.614;2023-05-23T14:35:53;9.90;;;2.35;;
39190;SDS011;24916;51.676;6.614;2023-05-23T14:38:18;10.90;;;5.50;;
39190;SDS011;24916;51.676;6.614;2023-05-23T14:40:43;9.17;;;2.97;;
39190;SDS011;24916;51.676;6.614;2023-05-23T14:43:08;13.07;;;2.40;;
39190;SDS011;24916;51.676;6.614;2023-05-23T14:45:34;11.93;;;3.35;;
39190;SDS011;24916;51.676;6.614;2023-05-23T14:47:59;8.98;;;3.30;;
39190;SDS011;24916;51.676;6.614;2023-05-23T14:50:25;9.68;;;3.13;;
39190;SDS011;24916;51.676;6.614;2023-05-23T14:52:50;9.05;;;2.35;;
39190;SDS011;24916;51.676;6.614;2023-05-23T14:55:15;12.10;;;2.47;;
39190;SDS011;24916;51.676;6.614;2023-05-23T14:57:41;9.18;;;2.28;;